메인 페이지
METAR-TAF:

METAR-TAF

공항 :

애틀랜타, 조지아, 미국

위도: 33-46-39N, 경도: 084-31-28W, 고도: 256m

현재 날씨관측

예보는 25분 전, 18:53시(UTC)에 발표되었습니다.
여러 방향의 바람 6kt
온도 11°C
습도 50%
기압 1021 hPa
시정: 16.1km
맑음

METAR: KFTY 131853Z VRB06KT 10SM CLR 11/01 A3016 RMK AO2 SLP217 T01110011

시각: 14:18 (19:18 UTC)

예보

예보는 1 시간 46분 전, 17:32시(UTC)에 발표되었습니다.
예보 대상 시간: 13일 18시부터 14일 18시까지 (UTC)
5kt
시정: 10km
고도 15000ft 상공 구름 많음
13일 2100시부터 (UTC)
8kt
시정: 10km
고도 5000ft 상공 구름 많음
고도 12000ft 상공 구름 많음
14일 0300시부터 (UTC)
10kt
시정: 10km
고도 2500ft 상공 흐림
약한비
14일 0800시부터 (UTC)
8kt
시정: 6.4km
고도 700ft 상공 구름 많음
고도 1200ft 상공 흐림
약한비, 박무
14일 1200시부터 (UTC)
11kt
시정: 3.2km
고도 500ft 상공 흐림
소나기, 박무
14일 1700시부터 (UTC)
11kt
시정: 6.4km
고도 600ft 상공 흐림
소나기

TAF: KFTY 131732Z 1318/1418 10005KT P6SM BKN150 FM132100 09008KT P6SM BKN050 BKN120 FM140300 09010KT P6SM -RA OVC025 FM140800 08008KT 4SM -RA BR BKN007 OVC012 FM141200 08011KT 2SM SHRA BR OVC005 FM141700 09011KT 4SM SHRA OVC006

4,000개 이상의 공항 관측 자료 및 예보 (METAR 및 TAF 보고).

지도상에서 검색 가능한 기상관측소가 노란 점과 빨간 점으로 표시되어 있습니다.

기상관측소 명을 보려면 표시 위로 마우스를 이동하세요.

날씨 관측과 예보를 보려면 클릭하세요.

지도 변경 : 확대하려면 엑스 표시가 있는 녹색 버튼, 축소하려면 빼기 표시가 있는 녹색 버튼, 다음 페이지의 지도를 보려면 녹색 화살표를 클릭하세요.


METAR-TAF: